Nearby METAR Reports

 

KGRB - Ashwaubenon, Wisconsin, USA
Distance from station: NW 5mi, 8km
Updated: Tue, 22-Oct-2019 4:53pm CDT
Overcast
Overcast
 Wind from WSW
Wind: WSW 15 mph , 24 km/h, Gust: 23 mph , 37 km/h
Temperature: 45°F , 7°C
Wind Chill: 38°F , 3°C
Dew Point: 39°F , 4°C
Humidity: 81%
Barometer: 29.47 inHg , 998 hPa
Clouds: Overcast
Visibility: 10 miles , 16 km
Cloud details: Partly cloudy 1600 ft
Mostly cloudy 2100 ft
Overcast 3300 ft
2019/10/22 21:53 KGRB 222153Z 24013G20KT 10SM SCT016 BKN021 OVC033 07/04 A2947 RMK AO2 PK WND 25029/2107 RAB27E38 SLP982 P0000 T00720039
KATW - Appleton/Outagam, Wisconsin, USA
Distance from station: WSW 26mi, 42km
Updated: Tue, 22-Oct-2019 4:45pm CDT
Overcast
Overcast
 Wind from WSW
Wind: WSW 17 mph , 28 km/h, Gust: 25 mph , 41 km/h
Temperature: 43°F , 6°C
Wind Chill: 35°F , 2°C
Dew Point: 37°F , 3°C
Humidity: 81%
Barometer: 29.47 inHg , 998 hPa
Clouds: Overcast
Visibility: 7 miles , 11 km
Cloud details: Overcast 1300 ft
2019/10/22 21:45 KATW 222145Z 25015G22KT 7SM OVC013 06/03 A2947
 
KMTW - Manitowac Muni, Wisconsin, USA
Distance from station: SE 29mi, 47km
Updated: Tue, 22-Oct-2019 4:56pm CDT
Light rain, Overcast
Light rain, Overcast
 Wind from WSW
Wind: WSW 18 mph , 30 km/h, Gust: 24 mph , 39 km/h
Temperature: 46°F , 8°C
Wind Chill: 39°F , 4°C
Dew Point: 39°F , 4°C
Humidity: 76%
Barometer: 29.50 inHg , 999 hPa
Summary: Light rain
Clouds: Overcast
Visibility: 9 miles , 14 km
Cloud details: Mostly cloudy 2800 ft
Mostly cloudy 3400 ft
Overcast 4100 ft
2019/10/22 21:56 KMTW 222156Z AUTO 25016G21KT 9SM -RA BKN028 BKN034 OVC041 08/04 A2950 RMK AO2 PK WND 25027/2135 RAB2058 SLP991 P0000 T00780039
KOCQ - Oconto, Wisconsin, USA
Distance from station: NNE 30mi, 49km
Updated: Tue, 22-Oct-2019 5:15pm CDT
Overcast
Overcast
 Wind from WSW
Wind: WSW 22 mph , 35 km/h, Gust: 26 mph , 43 km/h
Temperature: 45°F , 7°C
Wind Chill: 37°F , 3°C
Dew Point: 37°F , 3°C
Humidity: 76%
Barometer: 29.43 inHg , 996.6 hPa
Clouds: Overcast
Visibility: 10 miles , 16 km
Cloud details: Overcast 2300 ft
2019/10/22 22:15 KOCQ 222215Z AUTO 25019G23KT 10SM OVC023 07/03 A2943 RMK AO1 T00710032
 
KEZS - Shawano Muni, Wisconsin, USA
Distance from station: NW 35mi, 56km
Updated: Tue, 22-Oct-2019 5:35pm CDT
Overcast
Overcast
 Wind from WSW
Wind: WSW 9 mph , 15 km/h, Gust: 20 mph , 31 km/h
Temperature: 46°F , 8°C
Wind Chill: 41°F , 5°C
Dew Point: 39°F , 4°C
Humidity: 76%
Barometer: 29.46 inHg , 997.6 hPa
Clouds: Overcast
Visibility: 10 miles , 16 km
Cloud details: Mostly cloudy 2000 ft
Overcast 2600 ft
2019/10/22 22:35 KEZS 222235Z AUTO 25008G17KT 10SM BKN020 OVC026 08/04 A2946 RMK AO2 T00750040
KCLI - Clintonville, Wisconsin, USA
Distance from station: WNW 36mi, 58km
Updated: Tue, 22-Oct-2019 5:15pm CDT
Overcast
Overcast
 Wind from W
Wind: W 14 mph , 22 km/h, Gust: 23 mph , 37 km/h
Temperature: 45°F , 7°C
Wind Chill: 39°F , 4°C
Dew Point: 37°F , 3°C
Humidity: 76%
Barometer: 29.47 inHg , 998 hPa
Clouds: Overcast
Visibility: 10 miles , 16 km
Cloud details: Partly cloudy 1700 ft
Mostly cloudy 2600 ft
Overcast 3900 ft
2019/10/22 22:15 KCLI 222215Z AUTO 26012G20KT 10SM SCT017 BKN026 OVC039 07/03 A2947 RMK AO2 T00650029
 
KOSH - Oshkosh, Wisconsin, USA
Distance from station: SW 41mi, 66km
Updated: Tue, 22-Oct-2019 5:13pm CDT
Overcast
Overcast
 Wind from W
Wind: W 10 mph , 17 km/h, Gust: 26 mph , 43 km/h
Temperature: 45°F , 7°C
Wind Chill: 40°F , 4°C
Dew Point: 36°F , 2°C
Humidity: 71%
Barometer: 29.51 inHg , 999.3 hPa
Clouds: Overcast
Visibility: 10 miles , 16 km
Cloud details: Partly cloudy 2800 ft
Mostly cloudy 3900 ft
Overcast 4900 ft
2019/10/22 22:13 KOSH 222213Z 26009G23KT 10SM SCT028 BKN039 OVC049 07/02 A2951 RMK AO2 T00720022
KSUE - Sturgeon Bay, Wisconsin, USA
Distance from station: NE 42mi, 68km
Updated: Tue, 22-Oct-2019 4:56pm CDT
Overcast
Overcast
 Wind from SW
Wind: SW 17 mph , 28 km/h, Gust: 26 mph , 43 km/h
Temperature: 46°F , 8°C
Wind Chill: 39°F , 4°C
Dew Point: 39°F , 4°C
Humidity: 76%
Barometer: 29.43 inHg , 996.6 hPa
Clouds: Overcast
Visibility: 10 miles , 16 km
Cloud details: Mostly cloudy 2300 ft
Overcast 3100 ft
2019/10/22 21:56 KSUE 222156Z AUTO 23015G23KT 10SM BKN023 OVC031 08/04 A2943 RMK AO2 PK WND 23028/2122 SLP967 T00780039 $
 
KSBM - Sheboygan, Wisconsin, USA
Distance from station: SSE 46mi, 75km
Updated: Tue, 22-Oct-2019 4:53pm CDT
Light rain, Overcast
Light rain, Overcast
 Wind from WSW
Wind: WSW 14 mph , 22 km/h, Gust: 35 mph , 56 km/h
Temperature: 45°F , 7°C
Wind Chill: 39°F , 4°C
Dew Point: 39°F , 4°C
Humidity: 81%
Barometer: 29.53 inHg , 1000 hPa
Summary: Light rain
Clouds: Overcast
Visibility: 10 miles , 16 km
Cloud details: Few Clouds 1900 ft
Mostly cloudy 4300 ft
Overcast 5000 ft
2019/10/22 21:53 KSBM 222153Z AUTO 24012G30KT 10SM -RA FEW019 BKN043 OVC050 07/04 A2953 RMK AO2 PK WND 22030/2150 RAB12 SLP004 P0001 T00670039
KPCZ - Waupaca, Wisconsin, USA
Distance from station: W 48mi, 77km
Updated: Tue, 22-Oct-2019 5:35pm CDT
Overcast
Overcast
 Wind from WSW
Wind: WSW 13 mph , 20 km/h, Gust: 22 mph , 35 km/h
Temperature: 45°F , 7°C
Wind Chill: 39°F , 4°C
Dew Point: 39°F , 4°C
Humidity: 81%
Barometer: 29.52 inHg , 999.7 hPa
Clouds: Overcast
Visibility: 10 miles , 16 km
Cloud details: Mostly cloudy 2100 ft
Overcast 2600 ft
2019/10/22 22:35 KPCZ 222235Z AUTO 24011G19KT 10SM BKN021 OVC026 07/04 A2952 RMK AO2 T00660041